< < Back
Terminal Aerodrome Forecast


Current Version              Previous Versions:   1  2  3  4  5  6  7  8  9  

Terminal Aerodrome Forecast

196
FTUS42 KTAE 240500
TAFVLD
TAF
KVLD 240520Z 2406/2506 00000KT 2SM BR SCT007
     FM241100 00000KT 1/2SM FG SCT003
     FM241300 16004KT P6SM SCT040=

Latest METAR

464
SAUS70 KWBC 242300 RRH
MTRVLD
METAR KVLD 242253Z VRB03KT 10SM SCT060 28/17 A2993 RMK AO2 SLP139
T02830167


USA.gov is the U.S. government's official web portal to all federal, state and local government web resources and services.